sensor_id;sensor_type;location;lat;lon;timestamp;pressure;altitude;pressure_sealevel;temperature
45701;BMP280;36277;32.852;-116.998;2023-12-22T00:00:45;99831.44;;;26.37
45701;BMP280;36277;32.852;-116.998;2023-12-22T00:03:13;99841.88;;;26.41
45701;BMP280;36277;32.852;-116.998;2023-12-22T00:05:41;99839.94;;;26.41
45701;BMP280;36277;32.852;-116.998;2023-12-22T00:08:07;99840.16;;;26.27
45701;BMP280;36277;32.852;-116.998;2023-12-22T00:10:33;99842.53;;;26.04
45701;BMP280;36277;32.852;-116.998;2023-12-22T00:12:59;99844.88;;;25.81
45701;BMP280;36277;32.852;-116.998;2023-12-22T00:15:26;99839.31;;;25.75
45701;BMP280;36277;32.852;-116.998;2023-12-22T00:17:52;99836.75;;;25.73
45701;BMP280;36277;32.852;-116.998;2023-12-22T00:20:18;99832.50;;;25.77
45701;BMP280;36277;32.852;-116.998;2023-12-22T00:22:48;99847.63;;;25.81
45701;BMP280;36277;32.852;-116.998;2023-12-22T00:25:14;99853.81;;;25.83
45701;BMP280;36277;32.852;-116.998;2023-12-22T00:27:41;99849.56;;;25.87
45701;BMP280;36277;32.852;-116.998;2023-12-22T00:30:13;99846.78;;;25.94
45701;BMP280;36277;32.852;-116.998;2023-12-22T00:32:40;99847.22;;;25.97
45701;BMP280;36277;32.852;-116.998;2023-12-22T00:35:06;99865.06;;;26.01
45701;BMP280;36277;32.852;-116.998;2023-12-22T00:37:32;99865.53;;;26.05
45701;BMP280;36277;32.852;-116.998;2023-12-22T00:39:59;99867.44;;;26.11
45701;BMP280;36277;32.852;-116.998;2023-12-22T00:42:25;99864.44;;;25.93
45701;BMP280;36277;32.852;-116.998;2023-12-22T00:44:54;99863.53;;;25.66
45701;BMP280;36277;32.852;-116.998;2023-12-22T00:47:20;99849.50;;;25.55
45701;BMP280;36277;32.852;-116.998;2023-12-22T00:49:46;99844.78;;;25.49
45701;BMP280;36277;32.852;-116.998;2023-12-22T00:52:13;99834.56;;;25.49
45701;BMP280;36277;32.852;-116.998;2023-12-22T00:54:39;99829.50;;;25.53
45701;BMP280;36277;32.852;-116.998;2023-12-22T00:57:05;99832.91;;;25.55
45701;BMP280;36277;32.852;-116.998;2023-12-22T00:59:32;99836.72;;;25.60
45701;BMP280;36277;32.852;-116.998;2023-12-22T01:01:58;99838.44;;;25.61
45701;BMP280;36277;32.852;-116.998;2023-12-22T01:04:24;99849.72;;;25.66
45701;BMP280;36277;32.852;-116.998;2023-12-22T01:06:50;99855.88;;;25.68
45701;BMP280;36277;32.852;-116.998;2023-12-22T01:09:17;99863.75;;;25.71
45701;BMP280;36277;32.852;-116.998;2023-12-22T01:11:46;99871.00;;;25.72
45701;BMP280;36277;32.852;-116.998;2023-12-22T01:14:12;99870.53;;;25.75
45701;BMP280;36277;32.852;-116.998;2023-12-22T01:16:41;99878.66;;;25.77
45701;BMP280;36277;32.852;-116.998;2023-12-22T01:19:07;99885.69;;;25.79
45701;BMP280;36277;32.852;-116.998;2023-12-22T01:21:33;99891.03;;;25.81
45701;BMP280;36277;32.852;-116.998;2023-12-22T01:24:00;99900.16;;;25.81
45701;BMP280;36277;32.852;-116.998;2023-12-22T01:26:26;99899.75;;;25.84
45701;BMP280;36277;32.852;-116.998;2023-12-22T01:28:52;99896.78;;;25.86
45701;BMP280;36277;32.852;-116.998;2023-12-22T01:31:18;99904.84;;;25.87
45701;BMP280;36277;32.852;-116.998;2023-12-22T01:33:45;99904.84;;;25.87
45701;BMP280;36277;32.852;-116.998;2023-12-22T01:36:11;99905.69;;;25.88
45701;BMP280;36277;32.852;-116.998;2023-12-22T01:38:37;99912.09;;;25.88
45701;BMP280;36277;32.852;-116.998;2023-12-22T01:41:04;99909.97;;;25.90
45701;BMP280;36277;32.852;-116.998;2023-12-22T01:43:30;99907.38;;;25.89
45701;BMP280;36277;32.852;-116.998;2023-12-22T01:45:57;99908.25;;;25.89
45701;BMP280;36277;32.852;-116.998;2023-12-22T01:48:24;99914.44;;;25.91
45701;BMP280;36277;32.852;-116.998;2023-12-22T01:50:52;99923.78;;;25.90
45701;BMP280;36277;32.852;-116.998;2023-12-22T01:53:20;99921.88;;;25.91
45701;BMP280;36277;32.852;-116.998;2023-12-22T01:55:50;99926.56;;;25.90
45701;BMP280;36277;32.852;-116.998;2023-12-22T01:58:19;99933.16;;;25.89
45701;BMP280;36277;32.852;-116.998;2023-12-22T02:00:46;99928.03;;;25.86
45701;BMP280;36277;32.852;-116.998;2023-12-22T02:03:13;99928.69;;;25.88
45701;BMP280;36277;32.852;-116.998;2023-12-22T02:05:44;99938.03;;;25.87
45701;BMP280;36277;32.852;-116.998;2023-12-22T02:08:11;99937.16;;;25.87
45701;BMP280;36277;32.852;-116.998;2023-12-22T02:10:38;99930.78;;;25.86
45701;BMP280;36277;32.852;-116.998;2023-12-22T02:13:05;99926.97;;;25.87
45701;BMP280;36277;32.852;-116.998;2023-12-22T02:15:32;99926.97;;;25.87
45701;BMP280;36277;32.852;-116.998;2023-12-22T02:18:16;99926.97;;;25.87
45701;BMP280;36277;32.852;-116.998;2023-12-22T02:20:44;99917.19;;;25.85
45701;BMP280;36277;32.852;-116.998;2023-12-22T02:23:11;99913.56;;;25.84
45701;BMP280;36277;32.852;-116.998;2023-12-22T02:25:37;99915.91;;;25.87
45701;BMP280;36277;32.852;-116.998;2023-12-22T02:28:13;99903.16;;;25.86
45701;BMP280;36277;32.852;-116.998;2023-12-22T02:33:12;99900.59;;;25.85
45701;BMP280;36277;32.852;-116.998;2023-12-22T02:35:42;99897.84;;;25.85
45701;BMP280;36277;32.852;-116.998;2023-12-22T02:38:12;99895.91;;;25.85
45701;BMP280;36277;32.852;-116.998;2023-12-22T02:40:39;99888.69;;;25.84
45701;BMP280;36277;32.852;-116.998;2023-12-22T02:43:07;99888.25;;;25.87
45701;BMP280;36277;32.852;-116.998;2023-12-22T02:45:33;99881.03;;;25.86
45701;BMP280;36277;32.852;-116.998;2023-12-22T02:48:23;99871.66;;;25.87
45701;BMP280;36277;32.852;-116.998;2023-12-22T02:50:51;99873.78;;;25.92
45701;BMP280;36277;32.852;-116.998;2023-12-22T02:53:18;99873.59;;;25.93
45701;BMP280;36277;32.852;-116.998;2023-12-22T02:55:44;99874.25;;;25.95
45701;BMP280;36277;32.852;-116.998;2023-12-22T02:58:10;99865.94;;;25.95
45701;BMP280;36277;32.852;-116.998;2023-12-22T03:00:38;99859.34;;;25.96
45701;BMP280;36277;32.852;-116.998;2023-12-22T03:03:06;99855.53;;;25.97
45701;BMP280;36277;32.852;-116.998;2023-12-22T03:05:32;99846.59;;;25.95
45701;BMP280;36277;32.852;-116.998;2023-12-22T03:08:02;99844.00;;;26.00
45701;BMP280;36277;32.852;-116.998;2023-12-22T03:10:29;99848.28;;;26.03
45701;BMP280;36277;32.852;-116.998;2023-12-22T03:12:56;99848.06;;;26.04
45701;BMP280;36277;32.852;-116.998;2023-12-22T03:15:24;99837.00;;;26.04
45701;BMP280;36277;32.852;-116.998;2023-12-22T03:17:51;99836.78;;;26.06
45701;BMP280;36277;32.852;-116.998;2023-12-22T03:20:18;99824.44;;;26.08
45701;BMP280;36277;32.852;-116.998;2023-12-22T03:22:44;99825.31;;;26.09
45701;BMP280;36277;32.852;-116.998;2023-12-22T03:25:11;99818.72;;;26.10
45701;BMP280;36277;32.852;-116.998;2023-12-22T03:27:37;99811.25;;;26.10
45701;BMP280;36277;32.852;-116.998;2023-12-22T03:30:04;99808.28;;;26.12
45701;BMP280;36277;32.852;-116.998;2023-12-22T03:32:32;99799.53;;;26.15
45701;BMP280;36277;32.852;-116.998;2023-12-22T03:35:18;99807.00;;;26.14
45701;BMP280;36277;32.852;-116.998;2023-12-22T03:37:44;99807.19;;;26.13
45701;BMP280;36277;32.852;-116.998;2023-12-22T03:40:11;99814.88;;;26.17
45701;BMP280;36277;32.852;-116.998;2023-12-22T03:42:38;99807.22;;;26.19
45701;BMP280;36277;32.852;-116.998;2023-12-22T03:45:05;99799.75;;;26.20
45701;BMP280;36277;32.852;-116.998;2023-12-22T03:47:34;99801.25;;;26.22
45701;BMP280;36277;32.852;-116.998;2023-12-22T03:50:01;99800.19;;;26.23
45701;BMP280;36277;32.852;-116.998;2023-12-22T03:52:27;99814.63;;;26.25
45701;BMP280;36277;32.852;-116.998;2023-12-22T03:54:53;99794.84;;;26.22
45701;BMP280;36277;32.852;-116.998;2023-12-22T03:57:20;99796.78;;;26.21
45701;BMP280;36277;32.852;-116.998;2023-12-22T03:59:46;99797.41;;;26.23
45701;BMP280;36277;32.852;-116.998;2023-12-22T04:02:13;99789.13;;;26.23
45701;BMP280;36277;32.852;-116.998;2023-12-22T04:04:40;99789.53;;;26.20
45701;BMP280;36277;32.852;-116.998;2023-12-22T04:07:06;99789.53;;;26.20
45701;BMP280;36277;32.852;-116.998;2023-12-22T04:09:33;99781.25;;;26.20
45701;BMP280;36277;32.852;-116.998;2023-12-22T04:11:59;99785.09;;;26.19
45701;BMP280;36277;32.852;-116.998;2023-12-22T04:14:25;99786.97;;;26.19
45701;BMP280;36277;32.852;-116.998;2023-12-22T04:16:52;99795.06;;;26.20
45701;BMP280;36277;32.852;-116.998;2023-12-22T04:19:18;99786.97;;;26.19
45701;BMP280;36277;32.852;-116.998;2023-12-22T04:21:45;99783.16;;;26.20
45701;BMP280;36277;32.852;-116.998;2023-12-22T04:24:11;99788.03;;;26.18
45701;BMP280;36277;32.852;-116.998;2023-12-22T04:26:38;99782.75;;;26.16
45701;BMP280;36277;32.852;-116.998;2023-12-22T04:29:04;99772.31;;;26.18
45701;BMP280;36277;32.852;-116.998;2023-12-22T04:31:30;99767.84;;;26.17
45701;BMP280;36277;32.852;-116.998;2023-12-22T04:33:56;99769.97;;;26.15
45701;BMP280;36277;32.852;-116.998;2023-12-22T04:36:23;99775.50;;;26.15
45701;BMP280;36277;32.852;-116.998;2023-12-22T04:38:49;99775.69;;;26.14
45701;BMP280;36277;32.852;-116.998;2023-12-22T04:41:15;99780.81;;;26.10
45701;BMP280;36277;32.852;-116.998;2023-12-22T04:43:41;99780.00;;;26.10
45701;BMP280;36277;32.852;-116.998;2023-12-22T04:46:08;99775.94;;;26.06
45701;BMP280;36277;32.852;-116.998;2023-12-22T04:48:34;99758.50;;;26.05
45701;BMP280;36277;32.852;-116.998;2023-12-22T04:51:00;99752.97;;;26.05
45701;BMP280;36277;32.852;-116.998;2023-12-22T04:53:26;99750.41;;;26.04
45701;BMP280;36277;32.852;-116.998;2023-12-22T04:55:53;99747.84;;;26.02
45701;BMP280;36277;32.852;-116.998;2023-12-22T04:58:19;99748.31;;;25.99
45701;BMP280;36277;32.852;-116.998;2023-12-22T05:00:45;99752.16;;;25.98
45701;BMP280;36277;32.852;-116.998;2023-12-22T05:03:11;99757.69;;;25.98
45701;BMP280;36277;32.852;-116.998;2023-12-22T05:05:38;99755.09;;;25.97
45701;BMP280;36277;32.852;-116.998;2023-12-22T05:08:05;99749.81;;;25.95
45701;BMP280;36277;32.852;-116.998;2023-12-22T05:10:31;99747.03;;;25.95
45701;BMP280;36277;32.852;-116.998;2023-12-22T05:12:58;99748.28;;;25.93
45701;BMP280;36277;32.852;-116.998;2023-12-22T05:15:24;99747.47;;;25.92
45701;BMP280;36277;32.852;-116.998;2023-12-22T05:17:50;99733.84;;;25.91
45701;BMP280;36277;32.852;-116.998;2023-12-22T05:20:16;99738.53;;;25.90
45701;BMP280;36277;32.852;-116.998;2023-12-22T05:22:43;99739.38;;;25.91
45701;BMP280;36277;32.852;-116.998;2023-12-22T05:25:09;99738.97;;;25.87
45701;BMP280;36277;32.852;-116.998;2023-12-22T05:27:36;99728.72;;;25.88
45701;BMP280;36277;32.852;-116.998;2023-12-22T05:30:02;99726.19;;;25.86
45701;BMP280;36277;32.852;-116.998;2023-12-22T05:32:30;99706.19;;;25.84
45701;BMP280;36277;32.852;-116.998;2023-12-22T05:34:56;99703.66;;;25.83
45701;BMP280;36277;32.852;-116.998;2023-12-22T05:37:22;99701.75;;;25.83
45701;BMP280;36277;32.852;-116.998;2023-12-22T05:39:48;99692.81;;;25.81
45701;BMP280;36277;32.852;-116.998;2023-12-22T05:42:15;99668.31;;;25.78
45701;BMP280;36277;32.852;-116.998;2023-12-22T05:44:41;99660.03;;;25.78
45701;BMP280;36277;32.852;-116.998;2023-12-22T05:47:08;99653.84;;;25.76
45701;BMP280;36277;32.852;-116.998;2023-12-22T05:49:34;99648.78;;;25.73
45701;BMP280;36277;32.852;-116.998;2023-12-22T05:52:00;99658.97;;;25.73
45701;BMP280;36277;32.852;-116.998;2023-12-22T05:54:27;99677.69;;;25.71
45701;BMP280;36277;32.852;-116.998;2023-12-22T05:56:53;99676.00;;;25.70
45701;BMP280;36277;32.852;-116.998;2023-12-22T05:59:19;99656.88;;;25.68
45701;BMP280;36277;32.852;-116.998;2023-12-22T06:01:45;99669.19;;;25.66
45701;BMP280;36277;32.852;-116.998;2023-12-22T06:04:12;99664.09;;;25.63
45701;BMP280;36277;32.852;-116.998;2023-12-22T06:06:38;99655.59;;;25.64
45701;BMP280;36277;32.852;-116.998;2023-12-22T06:09:05;99665.78;;;25.64
45701;BMP280;36277;32.852;-116.998;2023-12-22T06:11:31;99647.09;;;25.59
45701;BMP280;36277;32.852;-116.998;2023-12-22T06:13:57;99657.50;;;25.57
45701;BMP280;36277;32.852;-116.998;2023-12-22T06:16:23;99638.16;;;25.57
45701;BMP280;36277;32.852;-116.998;2023-12-22T06:18:50;99640.28;;;25.55
45701;BMP280;36277;32.852;-116.998;2023-12-22T06:21:16;99636.91;;;25.53
45701;BMP280;36277;32.852;-116.998;2023-12-22T06:23:42;99627.97;;;25.51
45701;BMP280;36277;32.852;-116.998;2023-12-22T06:26:09;99631.78;;;25.50
45701;BMP280;36277;32.852;-116.998;2023-12-22T06:28:36;99623.75;;;25.49
45701;BMP280;36277;32.852;-116.998;2023-12-22T06:31:04;99615.69;;;25.47
45701;BMP280;36277;32.852;-116.998;2023-12-22T06:33:30;99598.47;;;25.45
45701;BMP280;36277;32.852;-116.998;2023-12-22T06:35:56;99579.31;;;25.44
45701;BMP280;36277;32.852;-116.998;2023-12-22T06:38:23;99586.78;;;25.43
45701;BMP280;36277;32.852;-116.998;2023-12-22T06:40:49;99595.25;;;25.42
45701;BMP280;36277;32.852;-116.998;2023-12-22T06:43:16;99599.09;;;25.41
45701;BMP280;36277;32.852;-116.998;2023-12-22T06:45:42;99595.91;;;25.37
45701;BMP280;36277;32.852;-116.998;2023-12-22T06:48:08;99585.69;;;25.38
45701;BMP280;36277;32.852;-116.998;2023-12-22T06:50:38;99575.72;;;25.37
45701;BMP280;36277;32.852;-116.998;2023-12-22T06:53:05;99554.91;;;25.34
45701;BMP280;36277;32.852;-116.998;2023-12-22T06:55:31;99546.84;;;25.33
45701;BMP280;36277;32.852;-116.998;2023-12-22T06:57:57;99550.66;;;25.32
45701;BMP280;36277;32.852;-116.998;2023-12-22T07:00:24;99551.50;;;25.32
45701;BMP280;36277;32.852;-116.998;2023-12-22T07:02:50;99552.78;;;25.30
45701;BMP280;36277;32.852;-116.998;2023-12-22T07:07:49;99550.22;;;25.28
45701;BMP280;36277;32.852;-116.998;2023-12-22T07:10:16;99557.88;;;25.27
45701;BMP280;36277;32.852;-116.998;2023-12-22T07:12:42;99554.28;;;25.26
45701;BMP280;36277;32.852;-116.998;2023-12-22T07:15:08;99555.34;;;25.25
45701;BMP280;36277;32.852;-116.998;2023-12-22T07:17:36;99553.66;;;25.24
45701;BMP280;36277;32.852;-116.998;2023-12-22T07:20:03;99556.19;;;25.26
45701;BMP280;36277;32.852;-116.998;2023-12-22T07:22:29;99561.06;;;25.24
45701;BMP280;36277;32.852;-116.998;2023-12-22T07:24:56;99573.81;;;25.25
45701;BMP280;36277;32.852;-116.998;2023-12-22T07:27:22;99586.78;;;25.24
45701;BMP280;36277;32.852;-116.998;2023-12-22T07:29:48;99587.84;;;25.23
45701;BMP280;36277;32.852;-116.998;2023-12-22T07:32:15;99596.97;;;25.24
45701;BMP280;36277;32.852;-116.998;2023-12-22T07:34:41;99594.44;;;25.22
45701;BMP280;36277;32.852;-116.998;2023-12-22T07:37:07;99615.69;;;25.22
45701;BMP280;36277;32.852;-116.998;2023-12-22T07:39:33;99630.56;;;25.21
45701;BMP280;36277;32.852;-116.998;2023-12-22T07:42:00;99638.22;;;25.19
45701;BMP280;36277;32.852;-116.998;2023-12-22T07:44:26;99662.84;;;25.20
45701;BMP280;36277;32.852;-116.998;2023-12-22T07:46:59;99691.34;;;25.21
45701;BMP280;36277;32.852;-116.998;2023-12-22T07:49:25;99706.63;;;25.17
45701;BMP280;36277;32.852;-116.998;2023-12-22T07:51:53;99735.06;;;25.17
45701;BMP280;36277;32.852;-116.998;2023-12-22T07:54:19;99748.25;;;25.15
45701;BMP280;36277;32.852;-116.998;2023-12-22T07:56:45;99751.88;;;25.16
45701;BMP280;36277;32.852;-116.998;2023-12-22T07:59:12;99764.81;;;25.15
45701;BMP280;36277;32.852;-116.998;2023-12-22T08:01:38;99784.38;;;25.14
45701;BMP280;36277;32.852;-116.998;2023-12-22T08:04:04;99810.25;;;25.13
45701;BMP280;36277;32.852;-116.998;2023-12-22T08:06:31;99801.97;;;25.13
45701;BMP280;36277;32.852;-116.998;2023-12-22T08:08:57;99770.28;;;25.09
45701;BMP280;36277;32.852;-116.998;2023-12-22T08:11:23;99774.97;;;25.08
45701;BMP280;36277;32.852;-116.998;2023-12-22T08:13:54;99760.31;;;25.08
45701;BMP280;36277;32.852;-116.998;2023-12-22T08:16:20;99783.25;;;25.08
45701;BMP280;36277;32.852;-116.998;2023-12-22T08:18:52;99785.16;;;25.08
45701;BMP280;36277;32.852;-116.998;2023-12-22T08:21:19;99773.47;;;25.06
45701;BMP280;36277;32.852;-116.998;2023-12-22T08:23:46;99777.94;;;25.07
45701;BMP280;36277;32.852;-116.998;2023-12-22T08:26:12;99805.78;;;25.05
45701;BMP280;36277;32.852;-116.998;2023-12-22T08:28:40;99842.50;;;25.06
45701;BMP280;36277;32.852;-116.998;2023-12-22T08:31:06;99851.84;;;25.05
45701;BMP280;36277;32.852;-116.998;2023-12-22T08:33:32;99839.75;;;25.06
45701;BMP280;36277;32.852;-116.998;2023-12-22T08:35:58;99855.66;;;25.04
45701;BMP280;36277;32.852;-116.998;2023-12-22T08:38:25;99853.97;;;25.03
45701;BMP280;36277;32.852;-116.998;2023-12-22T08:40:53;99849.50;;;25.02
45701;BMP280;36277;32.852;-116.998;2023-12-22T08:43:20;99838.44;;;25.02
45701;BMP280;36277;32.852;-116.998;2023-12-22T08:45:46;99838.44;;;25.02
45701;BMP280;36277;32.852;-116.998;2023-12-22T08:48:13;99850.53;;;25.01
45701;BMP280;36277;32.852;-116.998;2023-12-22T08:50:39;99870.75;;;25.01
45701;BMP280;36277;32.852;-116.998;2023-12-22T08:53:05;99825.69;;;25.01
45701;BMP280;36277;32.852;-116.998;2023-12-22T08:55:31;99793.84;;;24.98
45701;BMP280;36277;32.852;-116.998;2023-12-22T08:57:57;99773.66;;;24.98
45701;BMP280;36277;32.852;-116.998;2023-12-22T09:00:24;99783.84;;;24.97
45701;BMP280;36277;32.852;-116.998;2023-12-22T09:02:50;99863.09;;;24.97
45701;BMP280;36277;32.852;-116.998;2023-12-22T09:05:16;99871.38;;;24.97
45701;BMP280;36277;32.852;-116.998;2023-12-22T09:07:44;99863.72;;;24.99
45701;BMP280;36277;32.852;-116.998;2023-12-22T09:10:10;99836.31;;;24.97
45701;BMP280;36277;32.852;-116.998;2023-12-22T09:12:38;99839.28;;;24.96
45701;BMP280;36277;32.852;-116.998;2023-12-22T09:15:04;99833.78;;;24.96
45701;BMP280;36277;32.852;-116.998;2023-12-22T09:17:31;99822.91;;;24.94
45701;BMP280;36277;32.852;-116.998;2023-12-22T09:19:58;99820.16;;;24.94
45701;BMP280;36277;32.852;-116.998;2023-12-22T09:22:24;99825.91;;;24.93
45701;BMP280;36277;32.852;-116.998;2023-12-22T09:24:51;99814.00;;;24.92
45701;BMP280;36277;32.852;-116.998;2023-12-22T09:27:17;99825.91;;;24.93
45701;BMP280;36277;32.852;-116.998;2023-12-22T09:29:43;99835.25;;;24.92
45701;BMP280;36277;32.852;-116.998;2023-12-22T09:32:09;99838.84;;;24.92
45701;BMP280;36277;32.852;-116.998;2023-12-22T09:34:36;99851.81;;;24.92
45701;BMP280;36277;32.852;-116.998;2023-12-22T09:37:02;99844.34;;;24.92
45701;BMP280;36277;32.852;-116.998;2023-12-22T09:39:29;99841.81;;;24.91
45701;BMP280;36277;32.852;-116.998;2023-12-22T09:41:55;99818.03;;;24.90
45701;BMP280;36277;32.852;-116.998;2023-12-22T09:44:22;99804.00;;;24.91
45701;BMP280;36277;32.852;-116.998;2023-12-22T09:46:48;99813.56;;;24.89
45701;BMP280;36277;32.852;-116.998;2023-12-22T09:49:24;99802.53;;;24.89
45701;BMP280;36277;32.852;-116.998;2023-12-22T09:51:50;99800.81;;;24.88
45701;BMP280;36277;32.852;-116.998;2023-12-22T09:54:17;99790.59;;;24.88
45701;BMP280;36277;32.852;-116.998;2023-12-22T09:56:45;99788.91;;;24.87
45701;BMP280;36277;32.852;-116.998;2023-12-22T09:59:13;99780.84;;;24.86
45701;BMP280;36277;32.852;-116.998;2023-12-22T10:01:45;99770.44;;;24.88
45701;BMP280;36277;32.852;-116.998;2023-12-22T10:04:13;99768.94;;;24.85
45701;BMP280;36277;32.852;-116.998;2023-12-22T10:06:41;99756.22;;;24.84
45701;BMP280;36277;32.852;-116.998;2023-12-22T10:09:08;99751.75;;;24.83
45701;BMP280;36277;32.852;-116.998;2023-12-22T10:11:37;99738.78;;;24.84
45701;BMP280;36277;32.852;-116.998;2023-12-22T10:14:05;99741.56;;;24.84
45701;BMP280;36277;32.852;-116.998;2023-12-22T10:16:31;99743.66;;;24.82
45701;BMP280;36277;32.852;-116.998;2023-12-22T10:18:59;99731.56;;;24.83
45701;BMP280;36277;32.852;-116.998;2023-12-22T10:21:26;99734.75;;;24.80
45701;BMP280;36277;32.852;-116.998;2023-12-22T10:23:55;99753.00;;;24.81
45701;BMP280;36277;32.852;-116.998;2023-12-22T10:26:21;99759.59;;;24.80
45701;BMP280;36277;32.852;-116.998;2023-12-22T10:28:48;99750.25;;;24.81
45701;BMP280;36277;32.852;-116.998;2023-12-22T10:31:15;99743.88;;;24.80
45701;BMP280;36277;32.852;-116.998;2023-12-22T10:33:43;99746.66;;;24.80
45701;BMP280;36277;32.852;-116.998;2023-12-22T10:36:10;99745.13;;;24.78
45701;BMP280;36277;32.852;-116.998;2023-12-22T10:38:36;99737.91;;;24.77
45701;BMP280;36277;32.852;-116.998;2023-12-22T10:41:04;99728.56;;;24.78
45701;BMP280;36277;32.852;-116.998;2023-12-22T10:43:39;99720.09;;;24.79
45701;BMP280;36277;32.852;-116.998;2023-12-22T10:46:09;99725.16;;;24.76
45701;BMP280;36277;32.852;-116.998;2023-12-22T10:48:36;99724.53;;;24.74
45701;BMP280;36277;32.852;-116.998;2023-12-22T10:51:03;99727.28;;;24.74
45701;BMP280;36277;32.852;-116.998;2023-12-22T10:53:29;99723.47;;;24.75
45701;BMP280;36277;32.852;-116.998;2023-12-22T10:55:56;99716.25;;;24.74
45701;BMP280;36277;32.852;-116.998;2023-12-22T10:58:23;99711.78;;;24.73
45701;BMP280;36277;32.852;-116.998;2023-12-22T11:00:50;99721.75;;;24.74
45701;BMP280;36277;32.852;-116.998;2023-12-22T11:03:18;99717.31;;;24.73
45701;BMP280;36277;32.852;-116.998;2023-12-22T11:05:46;99715.63;;;24.72
45701;BMP280;36277;32.852;-116.998;2023-12-22T11:08:15;99718.38;;;24.72
45701;BMP280;36277;32.852;-116.998;2023-12-22T11:10:46;99711.16;;;24.71
45701;BMP280;36277;32.852;-116.998;2023-12-22T11:13:18;99696.72;;;24.69
45701;BMP280;36277;32.852;-116.998;2023-12-22T11:15:47;99697.56;;;24.69
45701;BMP280;36277;32.852;-116.998;2023-12-22T11:18:15;99695.84;;;24.68
45701;BMP280;36277;32.852;-116.998;2023-12-22T11:20:43;99691.41;;;24.67
45701;BMP280;36277;32.852;-116.998;2023-12-22T11:23:12;99691.19;;;24.69
45701;BMP280;36277;32.852;-116.998;2023-12-22T11:25:40;99687.16;;;24.65
45701;BMP280;36277;32.852;-116.998;2023-12-22T11:28:08;99685.03;;;24.67
45701;BMP280;36277;32.852;-116.998;2023-12-22T11:30:36;99679.72;;;24.65
45701;BMP280;36277;32.852;-116.998;2023-12-22T11:33:03;99666.97;;;24.64
45701;BMP280;36277;32.852;-116.998;2023-12-22T11:35:30;99668.91;;;24.64
45701;BMP280;36277;32.852;-116.998;2023-12-22T11:37:59;99665.09;;;24.65
45701;BMP280;36277;32.852;-116.998;2023-12-22T11:40:26;99656.34;;;24.61
45701;BMP280;36277;32.852;-116.998;2023-12-22T11:42:53;99660.63;;;24.64
45701;BMP280;36277;32.852;-116.998;2023-12-22T11:45:20;99668.25;;;24.62
45701;BMP280;36277;32.852;-116.998;2023-12-22T11:47:48;99663.56;;;24.62
45701;BMP280;36277;32.852;-116.998;2023-12-22T11:50:28;99676.53;;;24.62
45701;BMP280;36277;32.852;-116.998;2023-12-22T11:53:20;99672.47;;;24.58
45701;BMP280;36277;32.852;-116.998;2023-12-22T11:58:47;99672.69;;;24.56
45701;BMP280;36277;32.852;-116.998;2023-12-22T12:01:22;99670.34;;;24.53
45701;BMP280;36277;32.852;-116.998;2023-12-22T12:04:01;99660.16;;;24.54
45701;BMP280;36277;32.852;-116.998;2023-12-22T12:09:05;99665.03;;;24.52
45701;BMP280;36277;32.852;-116.998;2023-12-22T12:14:31;99660.78;;;24.49
45701;BMP280;36277;32.852;-116.998;2023-12-22T12:17:05;99658.88;;;24.50
45701;BMP280;36277;32.852;-116.998;2023-12-22T12:19:40;99662.69;;;24.49
45701;BMP280;36277;32.852;-116.998;2023-12-22T12:22:12;99668.59;;;24.46
45701;BMP280;36277;32.852;-116.998;2023-12-22T12:24:41;99676.88;;;24.46
45701;BMP280;36277;32.852;-116.998;2023-12-22T12:27:08;99670.72;;;24.44
45701;BMP280;36277;32.852;-116.998;2023-12-22T12:29:35;99670.50;;;24.45
45701;BMP280;36277;32.852;-116.998;2023-12-22T12:32:07;99668.59;;;24.46
45701;BMP280;36277;32.852;-116.998;2023-12-22T12:34:34;99682.81;;;24.43
45701;BMP280;36277;32.852;-116.998;2023-12-22T12:37:01;99682.16;;;24.41
45701;BMP280;36277;32.852;-116.998;2023-12-22T12:39:30;99695.94;;;24.41
45701;BMP280;36277;32.852;-116.998;2023-12-22T12:42:00;99693.38;;;24.39
45701;BMP280;36277;32.852;-116.998;2023-12-22T12:44:30;99692.94;;;24.36
45701;BMP280;36277;32.852;-116.998;2023-12-22T12:46:59;99688.09;;;24.38
45701;BMP280;36277;32.852;-116.998;2023-12-22T12:49:26;99689.31;;;24.35
45701;BMP280;36277;32.852;-116.998;2023-12-22T12:51:55;99699.53;;;24.35
45701;BMP280;36277;32.852;-116.998;2023-12-22T12:54:21;99694.22;;;24.33
45701;BMP280;36277;32.852;-116.998;2023-12-22T12:56:48;99690.59;;;24.33
45701;BMP280;36277;32.852;-116.998;2023-12-22T12:59:15;99689.97;;;24.31
45701;BMP280;36277;32.852;-116.998;2023-12-22T13:01:43;99691.00;;;24.30
45701;BMP280;36277;32.852;-116.998;2023-12-22T13:04:10;99703.97;;;24.29
45701;BMP280;36277;32.852;-116.998;2023-12-22T13:06:50;99717.75;;;24.29
45701;BMP280;36277;32.852;-116.998;2023-12-22T13:09:18;99726.44;;;24.26
45701;BMP280;36277;32.852;-116.998;2023-12-22T13:11:45;99722.81;;;24.26
45701;BMP280;36277;32.852;-116.998;2023-12-22T13:14:21;99715.59;;;24.25
45701;BMP280;36277;32.852;-116.998;2023-12-22T13:16:48;99715.81;;;24.23
45701;BMP280;36277;32.852;-116.998;2023-12-22T13:19:15;99712.19;;;24.23
45701;BMP280;36277;32.852;-116.998;2023-12-22T13:21:41;99695.03;;;24.21
45701;BMP280;36277;32.852;-116.998;2023-12-22T13:24:15;99682.91;;;24.22
45701;BMP280;36277;32.852;-116.998;2023-12-22T13:26:42;99670.63;;;24.18
45701;BMP280;36277;32.852;-116.998;2023-12-22T13:29:10;99675.06;;;24.19
45701;BMP280;36277;32.852;-116.998;2023-12-22T13:31:39;99684.41;;;24.18
45701;BMP280;36277;32.852;-116.998;2023-12-22T13:34:13;99693.50;;;24.18
45701;BMP280;36277;32.852;-116.998;2023-12-22T13:39:08;99704.94;;;24.15
45701;BMP280;36277;32.852;-116.998;2023-12-22T13:41:37;99702.41;;;24.14
45701;BMP280;36277;32.852;-116.998;2023-12-22T13:44:06;99706.22;;;24.13
45701;BMP280;36277;32.852;-116.998;2023-12-22T13:46:33;99695.19;;;24.13
45701;BMP280;36277;32.852;-116.998;2023-12-22T13:49:04;99689.66;;;24.13